International Virtual Aviation Organisation

Russian Federation and Kazakhstan MCD

 

Карточка аэропорта UUDD

Внимание!
Информация на этой странице в стадии наполнения.
Если вы не увидели какой-то информации, или заметили неточность - пожалуйста сообщите нам!
Спасибо!
Команда RU-STAFF
Название аэропортаДомодедово
Название аэропорта (англ.)Domodedovo
Превышение594 ft. (181.1 m.)
Координаты55°24.516', 37°54.384'
Высота перехода10000 ft
Эшелон переходаFL110
Коды ответчика1540-1577
Зона ОрВДМосква РПИ (UUWV)
Данные METARUUDD 041100Z 16006MPS 9999 OVC014 M04/M07 Q1033 R88/450242 NOSIG
Проноз погоды (TAF)UUDD 040753Z 0409/0515 15006G11MPS 9999 OVC012 TXM03/0511Z TNM06/0505Z BECMG 0506/0508 SCT016
NOTAMshow/hide NOTAM
AWOS   TABLE

Информация о ВПП

ВПП Длина ВПП (м.) Покрытие Курс ВПП Частота ILS
14L2370Железобетон135 
32R2370Железобетон315 
14R3500Цементобетон135110.1
32L3500Цементобетон315109.3
143800Цементобетон135108.5
323800Цементобетон315111.9

Диспетчерские позиции

Позывной Наименование органа УВД Частота
UUDD_TWRДомодедово-Вышка118.600
UUDD_TWRДомодедово-Вышка119.700
UUDD_DELДомодедово-Деливери 129.150
UUDD_GNDДомодедово-Перрон119.000
UUDD_GNDДомодедово-Перрон123.750
UUDD_APPДомодедово-Прилет129.800
UUDD_D_APPДомодедово-Прилет127.700
UUDD_DEPДомодедово-Вылет132.050



Спутниковое изображение